sensor_id;sensor_type;location;lat;lon;timestamp;pressure;altitude;pressure_sealevel;temperature;humidity
15678;BME280;7939;50.814;6.368;2023-02-28T00:01:04;101168.72;;;6.87;51.38
15678;BME280;7939;50.814;6.368;2023-02-28T00:03:33;101161.91;;;6.86;51.57
15678;BME280;7939;50.814;6.368;2023-02-28T00:06:01;101166.19;;;6.87;51.09
15678;BME280;7939;50.814;6.368;2023-02-28T00:08:28;101167.81;;;6.85;51.84
15678;BME280;7939;50.814;6.368;2023-02-28T00:10:54;101168.34;;;6.78;50.82
15678;BME280;7939;50.814;6.368;2023-02-28T00:13:21;101167.63;;;6.81;51.56
15678;BME280;7939;50.814;6.368;2023-02-28T00:15:58;101159.81;;;6.76;51.00
15678;BME280;7939;50.814;6.368;2023-02-28T00:18:25;101170.16;;;6.81;51.74
15678;BME280;7939;50.814;6.368;2023-02-28T00:20:52;101169.44;;;6.85;51.32
15678;BME280;7939;50.814;6.368;2023-02-28T00:23:19;101168.50;;;6.81;50.67
15678;BME280;7939;50.814;6.368;2023-02-28T00:25:46;101175.13;;;6.78;51.36
15678;BME280;7939;50.814;6.368;2023-02-28T00:28:12;101168.88;;;6.69;51.41
15678;BME280;7939;50.814;6.368;2023-02-28T00:30:39;101175.81;;;6.73;50.77
15678;BME280;7939;50.814;6.368;2023-02-28T00:33:06;101168.44;;;6.80;51.62
15678;BME280;7939;50.814;6.368;2023-02-28T00:35:32;101170.75;;;6.73;51.65
15678;BME280;7939;50.814;6.368;2023-02-28T00:38:00;101171.75;;;6.79;51.26
15678;BME280;7939;50.814;6.368;2023-02-28T00:40:27;101170.97;;;6.80;51.33
15678;BME280;7939;50.814;6.368;2023-02-28T00:42:54;101162.53;;;6.81;51.56
15678;BME280;7939;50.814;6.368;2023-02-28T00:45:21;101175.69;;;6.70;51.27
15678;BME280;7939;50.814;6.368;2023-02-28T00:47:47;101177.31;;;6.68;51.48
15678;BME280;7939;50.814;6.368;2023-02-28T00:50:16;101164.88;;;6.54;51.16
15678;BME280;7939;50.814;6.368;2023-02-28T00:52:42;101162.91;;;6.46;49.92
15678;BME280;7939;50.814;6.368;2023-02-28T00:55:10;101164.25;;;6.37;50.46
15678;BME280;7939;50.814;6.368;2023-02-28T00:57:37;101168.56;;;6.39;50.81
15678;BME280;7939;50.814;6.368;2023-02-28T01:00:05;101171.78;;;6.56;51.25
15678;BME280;7939;50.814;6.368;2023-02-28T01:02:31;101171.31;;;6.66;50.97
15678;BME280;7939;50.814;6.368;2023-02-28T01:04:58;101174.06;;;6.50;51.33
15678;BME280;7939;50.814;6.368;2023-02-28T01:07:25;101172.44;;;6.52;50.84
15678;BME280;7939;50.814;6.368;2023-02-28T01:09:51;101175.69;;;6.48;51.38
15678;BME280;7939;50.814;6.368;2023-02-28T01:12:19;101178.56;;;6.57;51.45
15678;BME280;7939;50.814;6.368;2023-02-28T01:14:46;101176.19;;;6.39;50.96
15678;BME280;7939;50.814;6.368;2023-02-28T01:17:12;101179.09;;;6.48;52.03
15678;BME280;7939;50.814;6.368;2023-02-28T01:19:39;101182.44;;;6.47;50.93
15678;BME280;7939;50.814;6.368;2023-02-28T01:22:06;101186.75;;;6.50;51.31
15678;BME280;7939;50.814;6.368;2023-02-28T01:24:33;101182.03;;;6.59;51.17
15678;BME280;7939;50.814;6.368;2023-02-28T01:26:59;101180.31;;;6.58;51.59
15678;BME280;7939;50.814;6.368;2023-02-28T01:29:27;101186.38;;;6.62;51.16
15678;BME280;7939;50.814;6.368;2023-02-28T01:31:54;101183.06;;;6.64;51.80
15678;BME280;7939;50.814;6.368;2023-02-28T01:34:20;101179.50;;;6.59;52.13
15678;BME280;7939;50.814;6.368;2023-02-28T01:36:47;101185.50;;;6.61;51.83
15678;BME280;7939;50.814;6.368;2023-02-28T01:39:13;101178.00;;;6.64;51.01
15678;BME280;7939;50.814;6.368;2023-02-28T01:41:40;101183.22;;;6.67;51.88
15678;BME280;7939;50.814;6.368;2023-02-28T01:47:13;101176.47;;;6.68;51.54
15678;BME280;7939;50.814;6.368;2023-02-28T01:49:40;101173.09;;;6.69;51.69
15678;BME280;7939;50.814;6.368;2023-02-28T01:52:08;101173.09;;;6.69;52.02
15678;BME280;7939;50.814;6.368;2023-02-28T01:54:44;101174.03;;;6.71;51.45
15678;BME280;7939;50.814;6.368;2023-02-28T01:57:16;101176.91;;;6.58;51.32
15678;BME280;7939;50.814;6.368;2023-02-28T01:59:47;101164.50;;;6.65;51.49
15678;BME280;7939;50.814;6.368;2023-02-28T02:02:19;101166.25;;;6.66;51.17
15678;BME280;7939;50.814;6.368;2023-02-28T02:04:54;101166.25;;;6.66;51.26
15678;BME280;7939;50.814;6.368;2023-02-28T02:07:22;101166.34;;;6.69;52.01
15678;BME280;7939;50.814;6.368;2023-02-28T02:09:49;101164.63;;;6.68;51.84
15678;BME280;7939;50.814;6.368;2023-02-28T02:12:25;101159.41;;;6.65;51.18
15678;BME280;7939;50.814;6.368;2023-02-28T02:15:01;101155.19;;;6.66;51.89
15678;BME280;7939;50.814;6.368;2023-02-28T02:17:37;101151.88;;;6.67;51.44
15678;BME280;7939;50.814;6.368;2023-02-28T02:20:31;101149.25;;;6.65;52.03
15678;BME280;7939;50.814;6.368;2023-02-28T02:23:19;101147.47;;;6.63;51.10
15678;BME280;7939;50.814;6.368;2023-02-28T02:25:52;101152.56;;;6.63;52.16
15678;BME280;7939;50.814;6.368;2023-02-28T02:28:37;101142.34;;;6.61;51.21
15678;BME280;7939;50.814;6.368;2023-02-28T02:31:47;101150.88;;;6.63;52.15
15678;BME280;7939;50.814;6.368;2023-02-28T02:34:28;101145.78;;;6.63;51.77
15678;BME280;7939;50.814;6.368;2023-02-28T02:37:05;101144.00;;;6.61;51.82
15678;BME280;7939;50.814;6.368;2023-02-28T02:39:41;101145.78;;;6.63;51.36
15678;BME280;7939;50.814;6.368;2023-02-28T02:42:16;101142.44;;;6.64;52.06
15678;BME280;7939;50.814;6.368;2023-02-28T02:44:51;101145.94;;;6.66;51.70
15678;BME280;7939;50.814;6.368;2023-02-28T02:47:26;101138.94;;;6.61;51.73
15678;BME280;7939;50.814;6.368;2023-02-28T02:49:58;101145.63;;;6.59;51.93
15678;BME280;7939;50.814;6.368;2023-02-28T02:52:31;101143.22;;;6.62;51.84
15678;BME280;7939;50.814;6.368;2023-02-28T02:55:02;101144.75;;;6.58;52.15
15678;BME280;7939;50.814;6.368;2023-02-28T02:57:33;101148.22;;;6.60;51.35
15678;BME280;7939;50.814;6.368;2023-02-28T03:00:03;101146.59;;;6.62;51.42
15678;BME280;7939;50.814;6.368;2023-02-28T03:02:34;101143.06;;;6.59;51.28
15678;BME280;7939;50.814;6.368;2023-02-28T03:05:06;101144.78;;;6.60;51.81
15678;BME280;7939;50.814;6.368;2023-02-28T03:07:34;101153.31;;;6.60;51.34
15678;BME280;7939;50.814;6.368;2023-02-28T03:10:01;101150.78;;;6.60;51.91
15678;BME280;7939;50.814;6.368;2023-02-28T03:12:32;101140.47;;;6.57;51.87
15678;BME280;7939;50.814;6.368;2023-02-28T03:15:08;101132.91;;;6.59;51.92
15678;BME280;7939;50.814;6.368;2023-02-28T03:18:01;101138.06;;;6.60;52.23
15678;BME280;7939;50.814;6.368;2023-02-28T03:20:37;101137.13;;;6.58;51.06
15678;BME280;7939;50.814;6.368;2023-02-28T03:23:14;101132.88;;;6.57;52.25
15678;BME280;7939;50.814;6.368;2023-02-28T03:25:54;101137.03;;;6.55;51.81
15678;BME280;7939;50.814;6.368;2023-02-28T03:28:30;101126.16;;;6.59;51.07
15678;BME280;7939;50.814;6.368;2023-02-28T03:31:00;101128.53;;;6.55;51.58
15678;BME280;7939;50.814;6.368;2023-02-28T03:33:33;101124.25;;;6.54;51.38
15678;BME280;7939;50.814;6.368;2023-02-28T03:36:05;101131.19;;;6.58;51.22
15678;BME280;7939;50.814;6.368;2023-02-28T03:38:37;101134.59;;;6.58;52.13
15678;BME280;7939;50.814;6.368;2023-02-28T03:41:07;101135.34;;;6.56;51.32
15678;BME280;7939;50.814;6.368;2023-02-28T03:43:41;101137.03;;;6.55;51.10
15678;BME280;7939;50.814;6.368;2023-02-28T03:46:10;101133.50;;;6.52;51.14
15678;BME280;7939;50.814;6.368;2023-02-28T03:48:42;101138.56;;;6.52;51.63
15678;BME280;7939;50.814;6.368;2023-02-28T03:51:14;101136.16;;;6.55;51.78
15678;BME280;7939;50.814;6.368;2023-02-28T03:53:44;101133.63;;;6.55;51.07
15678;BME280;7939;50.814;6.368;2023-02-28T03:56:14;101134.34;;;6.52;51.51
15678;BME280;7939;50.814;6.368;2023-02-28T03:58:47;101136.84;;;6.51;51.67
15678;BME280;7939;50.814;6.368;2023-02-28T04:01:20;101127.72;;;6.56;52.15
15678;BME280;7939;50.814;6.368;2023-02-28T04:03:49;101127.72;;;6.56;51.90
15678;BME280;7939;50.814;6.368;2023-02-28T04:06:19;101136.03;;;6.52;51.72
15678;BME280;7939;50.814;6.368;2023-02-28T04:08:47;101130.22;;;6.54;51.71
15678;BME280;7939;50.814;6.368;2023-02-28T04:11:19;101140.25;;;6.51;51.64
15678;BME280;7939;50.814;6.368;2023-02-28T04:13:47;101130.00;;;6.48;51.99
15678;BME280;7939;50.814;6.368;2023-02-28T04:16:14;101131.81;;;6.52;51.82
15678;BME280;7939;50.814;6.368;2023-02-28T04:18:41;101125.00;;;6.51;51.35
15678;BME280;7939;50.814;6.368;2023-02-28T04:21:09;101132.56;;;6.49;51.45
15678;BME280;7939;50.814;6.368;2023-02-28T04:23:38;101136.91;;;6.52;51.20
15678;BME280;7939;50.814;6.368;2023-02-28T04:26:04;101141.88;;;6.49;51.50
15678;BME280;7939;50.814;6.368;2023-02-28T04:28:31;101143.59;;;6.50;51.20
15678;BME280;7939;50.814;6.368;2023-02-28T04:30:58;101141.75;;;6.46;51.86
15678;BME280;7939;50.814;6.368;2023-02-28T04:33:25;101135.06;;;6.48;51.61
15678;BME280;7939;50.814;6.368;2023-02-28T04:35:58;101138.38;;;6.47;51.79
15678;BME280;7939;50.814;6.368;2023-02-28T04:38:25;101139.16;;;6.44;51.05
15678;BME280;7939;50.814;6.368;2023-02-28T04:40:52;101146.00;;;6.47;51.81
15678;BME280;7939;50.814;6.368;2023-02-28T04:43:19;101148.50;;;6.45;51.06
15678;BME280;7939;50.814;6.368;2023-02-28T04:45:45;101145.00;;;6.42;51.41
15678;BME280;7939;50.814;6.368;2023-02-28T04:48:12;101149.25;;;6.43;51.53
15678;BME280;7939;50.814;6.368;2023-02-28T04:50:39;101148.38;;;6.42;51.75
15678;BME280;7939;50.814;6.368;2023-02-28T04:53:05;101150.84;;;6.41;51.40
15678;BME280;7939;50.814;6.368;2023-02-28T04:55:32;101154.09;;;6.37;51.56
15678;BME280;7939;50.814;6.368;2023-02-28T04:58:00;101157.34;;;6.34;51.07
15678;BME280;7939;50.814;6.368;2023-02-28T05:00:27;101164.28;;;6.38;51.72
15678;BME280;7939;50.814;6.368;2023-02-28T05:02:54;101155.63;;;6.33;51.70
15678;BME280;7939;50.814;6.368;2023-02-28T05:05:21;101161.66;;;6.35;51.75
15678;BME280;7939;50.814;6.368;2023-02-28T05:07:47;101157.44;;;6.36;51.56
15678;BME280;7939;50.814;6.368;2023-02-28T05:10:14;101164.19;;;6.35;51.41
15678;BME280;7939;50.814;6.368;2023-02-28T05:12:41;101165.78;;;6.33;51.98
15678;BME280;7939;50.814;6.368;2023-02-28T05:15:13;101165.69;;;6.30;51.65
15678;BME280;7939;50.814;6.368;2023-02-28T05:17:39;101159.03;;;6.34;51.22
15678;BME280;7939;50.814;6.368;2023-02-28T05:20:07;101163.28;;;6.35;51.63
15678;BME280;7939;50.814;6.368;2023-02-28T05:22:36;101165.84;;;6.35;51.35
15678;BME280;7939;50.814;6.368;2023-02-28T05:25:03;101168.28;;;6.32;51.97
15678;BME280;7939;50.814;6.368;2023-02-28T05:27:30;101166.59;;;6.32;51.40
15678;BME280;7939;50.814;6.368;2023-02-28T05:29:56;101161.31;;;6.28;51.26
15678;BME280;7939;50.814;6.368;2023-02-28T05:32:25;101168.16;;;6.29;51.46
15678;BME280;7939;50.814;6.368;2023-02-28T05:34:52;101156.19;;;6.26;51.23
15678;BME280;7939;50.814;6.368;2023-02-28T05:37:18;101156.19;;;6.26;51.74
15678;BME280;7939;50.814;6.368;2023-02-28T05:39:45;101163.81;;;6.26;51.64
15678;BME280;7939;50.814;6.368;2023-02-28T05:42:11;101169.69;;;6.25;51.89
15678;BME280;7939;50.814;6.368;2023-02-28T05:44:38;101175.59;;;6.24;51.19
15678;BME280;7939;50.814;6.368;2023-02-28T05:47:05;101163.72;;;6.23;51.18
15678;BME280;7939;50.814;6.368;2023-02-28T05:49:33;101165.53;;;6.27;51.11
15678;BME280;7939;50.814;6.368;2023-02-28T05:52:00;101169.66;;;6.24;51.41
15678;BME280;7939;50.814;6.368;2023-02-28T05:54:26;101161.94;;;6.22;51.68
15678;BME280;7939;50.814;6.368;2023-02-28T05:56:53;101161.09;;;6.21;51.76
15678;BME280;7939;50.814;6.368;2023-02-28T05:59:19;101165.13;;;6.16;51.05
15678;BME280;7939;50.814;6.368;2023-02-28T06:01:46;101163.72;;;6.23;51.02
15678;BME280;7939;50.814;6.368;2023-02-28T06:04:16;101168.59;;;6.18;51.38
15678;BME280;7939;50.814;6.368;2023-02-28T06:06:46;101163.28;;;6.12;51.05
15678;BME280;7939;50.814;6.368;2023-02-28T06:09:12;101162.66;;;6.18;51.57
15678;BME280;7939;50.814;6.368;2023-02-28T06:11:39;101167.47;;;6.12;51.61
15678;BME280;7939;50.814;6.368;2023-02-28T06:14:09;101164.75;;;6.07;51.33
15678;BME280;7939;50.814;6.368;2023-02-28T06:16:39;101159.00;;;6.11;51.30
15678;BME280;7939;50.814;6.368;2023-02-28T06:19:06;101164.81;;;6.09;51.43
15678;BME280;7939;50.814;6.368;2023-02-28T06:21:33;101165.56;;;6.06;51.99
15678;BME280;7939;50.814;6.368;2023-02-28T06:24:01;101172.38;;;6.07;51.36
15678;BME280;7939;50.814;6.368;2023-02-28T06:26:29;101170.63;;;6.06;51.97
15678;BME280;7939;50.814;6.368;2023-02-28T06:28:56;101173.13;;;6.05;51.59
15678;BME280;7939;50.814;6.368;2023-02-28T06:31:23;101179.88;;;6.04;51.47
15678;BME280;7939;50.814;6.368;2023-02-28T06:33:51;101172.97;;;6.02;51.40
15678;BME280;7939;50.814;6.368;2023-02-28T06:36:18;101181.53;;;6.04;52.10
15678;BME280;7939;50.814;6.368;2023-02-28T06:38:45;101177.38;;;6.06;52.01
15678;BME280;7939;50.814;6.368;2023-02-28T06:41:17;101184.84;;;6.03;52.01
15678;BME280;7939;50.814;6.368;2023-02-28T06:43:44;101180.53;;;6.00;51.86
15678;BME280;7939;50.814;6.368;2023-02-28T06:46:13;101189.88;;;6.01;51.74
15678;BME280;7939;50.814;6.368;2023-02-28T06:48:39;101194.13;;;6.02;51.72
15678;BME280;7939;50.814;6.368;2023-02-28T06:51:09;101193.22;;;6.00;51.87
15678;BME280;7939;50.814;6.368;2023-02-28T06:53:36;101197.53;;;6.03;51.41
15678;BME280;7939;50.814;6.368;2023-02-28T06:56:04;101196.69;;;6.02;51.75
15678;BME280;7939;50.814;6.368;2023-02-28T06:58:33;101208.56;;;6.03;51.85
15678;BME280;7939;50.814;6.368;2023-02-28T07:01:00;101201.75;;;6.02;51.67
15678;BME280;7939;50.814;6.368;2023-02-28T07:03:27;101210.13;;;6.00;51.96
15678;BME280;7939;50.814;6.368;2023-02-28T07:05:53;101214.44;;;6.02;51.72
15678;BME280;7939;50.814;6.368;2023-02-28T07:08:21;101219.41;;;5.99;51.89
15678;BME280;7939;50.814;6.368;2023-02-28T07:10:51;101216.81;;;5.98;51.91
15678;BME280;7939;50.814;6.368;2023-02-28T07:13:18;101225.19;;;5.97;51.98
15678;BME280;7939;50.814;6.368;2023-02-28T07:15:53;101223.63;;;5.99;51.72
15678;BME280;7939;50.814;6.368;2023-02-28T07:18:20;101224.34;;;5.96;51.67
15678;BME280;7939;50.814;6.368;2023-02-28T07:20:46;101228.50;;;5.94;51.78
15678;BME280;7939;50.814;6.368;2023-02-28T07:23:13;101233.50;;;5.92;51.72
15678;BME280;7939;50.814;6.368;2023-02-28T07:25:40;101236.84;;;5.91;52.21
15678;BME280;7939;50.814;6.368;2023-02-28T07:28:06;101235.53;;;5.82;51.91
15678;BME280;7939;50.814;6.368;2023-02-28T07:30:33;101229.66;;;5.83;51.73
15678;BME280;7939;50.814;6.368;2023-02-28T07:33:02;101235.69;;;5.85;52.03
15678;BME280;7939;50.814;6.368;2023-02-28T07:35:29;101231.81;;;5.74;51.82
15678;BME280;7939;50.814;6.368;2023-02-28T07:37:57;101229.94;;;5.69;51.55
15678;BME280;7939;50.814;6.368;2023-02-28T07:40:24;101230.34;;;5.79;52.12
15678;BME280;7939;50.814;6.368;2023-02-28T07:42:51;101232.38;;;5.66;51.76
15678;BME280;7939;50.814;6.368;2023-02-28T07:45:18;101231.16;;;5.58;51.79
15678;BME280;7939;50.814;6.368;2023-02-28T07:47:45;101231.94;;;5.57;52.29
15678;BME280;7939;50.814;6.368;2023-02-28T07:50:15;101238.63;;;5.75;51.65
15678;BME280;7939;50.814;6.368;2023-02-28T07:52:42;101233.28;;;5.68;52.20
15678;BME280;7939;50.814;6.368;2023-02-28T07:55:09;101223.25;;;5.72;52.24
15678;BME280;7939;50.814;6.368;2023-02-28T07:57:36;101232.16;;;5.81;52.11
15678;BME280;7939;50.814;6.368;2023-02-28T08:00:04;101233.81;;;5.81;51.92
15678;BME280;7939;50.814;6.368;2023-02-28T08:02:31;101235.03;;;5.69;51.53
15678;BME280;7939;50.814;6.368;2023-02-28T08:04:58;101229.75;;;5.65;51.63
15678;BME280;7939;50.814;6.368;2023-02-28T08:07:27;101223.81;;;5.64;52.51
15678;BME280;7939;50.814;6.368;2023-02-28T08:09:53;101227.09;;;5.43;50.70
15678;BME280;7939;50.814;6.368;2023-02-28T08:12:20;101234.47;;;5.19;50.44
15678;BME280;7939;50.814;6.368;2023-02-28T08:14:47;101233.72;;;5.21;51.44
15678;BME280;7939;50.814;6.368;2023-02-28T08:17:14;101233.34;;;5.31;51.20
15678;BME280;7939;50.814;6.368;2023-02-28T08:19:41;101238.75;;;5.39;51.53
15678;BME280;7939;50.814;6.368;2023-02-28T08:22:08;101236.69;;;5.50;50.89
15678;BME280;7939;50.814;6.368;2023-02-28T08:24:36;101237.44;;;5.47;51.31
15678;BME280;7939;50.814;6.368;2023-02-28T08:27:03;101240.38;;;5.56;51.85
15678;BME280;7939;50.814;6.368;2023-02-28T08:29:29;101235.56;;;5.43;51.54
15678;BME280;7939;50.814;6.368;2023-02-28T08:31:56;101242.91;;;5.37;50.57
15678;BME280;7939;50.814;6.368;2023-02-28T08:34:24;101231.69;;;5.51;51.58
15678;BME280;7939;50.814;6.368;2023-02-28T08:36:50;101234.50;;;5.57;51.58
15678;BME280;7939;50.814;6.368;2023-02-28T08:39:18;101238.56;;;5.54;51.41
15678;BME280;7939;50.814;6.368;2023-02-28T08:41:46;101239.88;;;5.46;51.97
15678;BME280;7939;50.814;6.368;2023-02-28T08:44:13;101238.22;;;5.65;51.81
15678;BME280;7939;50.814;6.368;2023-02-28T08:46:40;101237.16;;;5.22;49.25
15678;BME280;7939;50.814;6.368;2023-02-28T08:49:06;101236.72;;;5.12;48.88
15678;BME280;7939;50.814;6.368;2023-02-28T08:51:34;101236.31;;;5.03;48.27
15678;BME280;7939;50.814;6.368;2023-02-28T08:54:01;101233.34;;;4.94;49.02
15678;BME280;7939;50.814;6.368;2023-02-28T08:56:28;101233.91;;;5.06;49.15
15678;BME280;7939;50.814;6.368;2023-02-28T08:58:57;101229.53;;;4.84;47.77
15678;BME280;7939;50.814;6.368;2023-02-28T09:01:26;101230.63;;;4.72;47.48
15678;BME280;7939;50.814;6.368;2023-02-28T09:03:54;101241.75;;;4.75;46.83
15678;BME280;7939;50.814;6.368;2023-02-28T09:06:22;101233.22;;;4.55;45.76
15678;BME280;7939;50.814;6.368;2023-02-28T09:08:50;101235.53;;;4.69;46.81
15678;BME280;7939;50.814;6.368;2023-02-28T09:11:17;101228.16;;;4.55;46.40
15678;BME280;7939;50.814;6.368;2023-02-28T09:13:44;101236.00;;;4.78;46.47
15678;BME280;7939;50.814;6.368;2023-02-28T09:16:14;101227.13;;;4.52;45.29
15678;BME280;7939;50.814;6.368;2023-02-28T09:18:42;101232.59;;;4.59;45.00
15678;BME280;7939;50.814;6.368;2023-02-28T09:21:10;101227.88;;;4.49;45.09
15678;BME280;7939;50.814;6.368;2023-02-28T09:23:39;101221.88;;;4.65;45.32
15678;BME280;7939;50.814;6.368;2023-02-28T09:26:06;101231.72;;;4.59;44.59
15678;BME280;7939;50.814;6.368;2023-02-28T09:28:33;101220.34;;;4.69;44.48
15678;BME280;7939;50.814;6.368;2023-02-28T09:31:00;101215.28;;;4.69;44.00
15678;BME280;7939;50.814;6.368;2023-02-28T09:33:31;101218.44;;;4.65;44.14
15678;BME280;7939;50.814;6.368;2023-02-28T09:36:00;101205.31;;;4.72;43.36
15678;BME280;7939;50.814;6.368;2023-02-28T09:38:27;101217.06;;;4.89;44.54
15678;BME280;7939;50.814;6.368;2023-02-28T09:40:57;101209.50;;;5.08;45.02
15678;BME280;7939;50.814;6.368;2023-02-28T09:43:27;101206.88;;;4.87;43.17
15678;BME280;7939;50.814;6.368;2023-02-28T09:46:00;101211.25;;;5.09;44.25
15678;BME280;7939;50.814;6.368;2023-02-28T09:48:33;101220.31;;;5.04;43.28
15678;BME280;7939;50.814;6.368;2023-02-28T09:51:04;101227.69;;;5.00;43.12
15678;BME280;7939;50.814;6.368;2023-02-28T09:53:34;101215.84;;;4.99;42.59
15678;BME280;7939;50.814;6.368;2023-02-28T09:56:07;101219.78;;;5.11;43.40
15678;BME280;7939;50.814;6.368;2023-02-28T09:58:39;101208.38;;;5.21;42.86
15678;BME280;7939;50.814;6.368;2023-02-28T10:01:16;101219.66;;;5.28;42.90
15678;BME280;7939;50.814;6.368;2023-02-28T10:03:51;101212.00;;;5.46;42.83
15678;BME280;7939;50.814;6.368;2023-02-28T10:06:26;101227.53;;;5.34;41.81
15678;BME280;7939;50.814;6.368;2023-02-28T10:08:58;101227.34;;;5.29;40.95
15678;BME280;7939;50.814;6.368;2023-02-28T10:11:29;101234.09;;;5.29;41.41
15678;BME280;7939;50.814;6.368;2023-02-28T10:14:01;101218.53;;;5.21;40.79
15678;BME280;7939;50.814;6.368;2023-02-28T10:16:34;101212.53;;;5.38;41.38
15678;BME280;7939;50.814;6.368;2023-02-28T10:19:06;101220.88;;;5.36;40.75
15678;BME280;7939;50.814;6.368;2023-02-28T10:21:39;101215.41;;;5.46;40.98
15678;BME280;7939;50.814;6.368;2023-02-28T10:24:19;101216.03;;;5.60;41.90
15678;BME280;7939;50.814;6.368;2023-02-28T10:26:47;101220.47;;;5.65;40.64
15678;BME280;7939;50.814;6.368;2023-02-28T10:29:14;101228.75;;;5.61;41.36
15678;BME280;7939;50.814;6.368;2023-02-28T10:31:42;101217.75;;;5.61;40.10
15678;BME280;7939;50.814;6.368;2023-02-28T10:34:12;101216.34;;;5.67;39.99
15678;BME280;7939;50.814;6.368;2023-02-28T10:36:39;101210.53;;;5.70;40.58
15678;BME280;7939;50.814;6.368;2023-02-28T10:39:34;101220.66;;;5.70;40.68
15678;BME280;7939;50.814;6.368;2023-02-28T10:42:01;101215.22;;;5.61;40.37
15678;BME280;7939;50.814;6.368;2023-02-28T10:44:28;101218.03;;;5.88;41.83
15678;BME280;7939;50.814;6.368;2023-02-28T10:46:55;101211.75;;;5.98;41.24
15678;BME280;7939;50.814;6.368;2023-02-28T10:49:26;101205.91;;;6.00;39.80
15678;BME280;7939;50.814;6.368;2023-02-28T10:51:55;101208.38;;;5.99;39.94
15678;BME280;7939;50.814;6.368;2023-02-28T10:54:24;101199.00;;;6.17;40.88
15678;BME280;7939;50.814;6.368;2023-02-28T10:57:17;101205.66;;;6.15;39.90
15678;BME280;7939;50.814;6.368;2023-02-28T10:59:45;101203.97;;;6.15;40.07
15678;BME280;7939;50.814;6.368;2023-02-28T11:02:30;101205.16;;;6.03;39.64
15678;BME280;7939;50.814;6.368;2023-02-28T11:04:59;101196.50;;;5.98;38.71
15678;BME280;7939;50.814;6.368;2023-02-28T11:07:26;101194.84;;;5.98;38.90
15678;BME280;7939;50.814;6.368;2023-02-28T11:09:55;101192.16;;;5.95;39.01
15678;BME280;7939;50.814;6.368;2023-02-28T11:12:24;101183.03;;;5.99;39.56
15678;BME280;7939;50.814;6.368;2023-02-28T11:14:56;101191.34;;;5.96;39.48
15678;BME280;7939;50.814;6.368;2023-02-28T11:17:26;101190.78;;;6.03;39.41
15678;BME280;7939;50.814;6.368;2023-02-28T11:19:56;101185.72;;;6.03;38.89
15678;BME280;7939;50.814;6.368;2023-02-28T11:22:27;101179.16;;;6.08;39.27
15678;BME280;7939;50.814;6.368;2023-02-28T11:24:56;101190.44;;;6.15;39.65
15678;BME280;7939;50.814;6.368;2023-02-28T11:27:43;101185.59;;;6.21;40.04
15678;BME280;7939;50.814;6.368;2023-02-28T11:30:39;101181.22;;;6.38;40.35
15678;BME280;7939;50.814;6.368;2023-02-28T11:33:21;101183.94;;;6.42;40.46
15678;BME280;7939;50.814;6.368;2023-02-28T11:35:49;101185.19;;;6.54;41.05
15678;BME280;7939;50.814;6.368;2023-02-28T11:38:18;101178.78;;;6.41;39.54
15678;BME280;7939;50.814;6.368;2023-02-28T11:40:48;101193.81;;;6.57;40.25
15678;BME280;7939;50.814;6.368;2023-02-28T11:43:27;101176.94;;;6.59;41.25
15678;BME280;7939;50.814;6.368;2023-02-28T11:46:07;101178.28;;;6.49;39.73
15678;BME280;7939;50.814;6.368;2023-02-28T11:48:47;101177.47;;;6.51;39.01
15678;BME280;7939;50.814;6.368;2023-02-28T11:51:22;101176.22;;;6.41;39.55
15678;BME280;7939;50.814;6.368;2023-02-28T11:54:06;101181.56;;;6.47;40.03
15678;BME280;7939;50.814;6.368;2023-02-28T11:56:38;101187.34;;;6.65;41.02
15678;BME280;7939;50.814;6.368;2023-02-28T11:59:29;101175.22;;;6.58;40.06
15678;BME280;7939;50.814;6.368;2023-02-28T12:02:20;101174.78;;;6.68;40.21
15678;BME280;7939;50.814;6.368;2023-02-28T12:05:07;101178.22;;;6.70;40.43
15678;BME280;7939;50.814;6.368;2023-02-28T12:07:44;101176.59;;;6.50;39.68
15678;BME280;7939;50.814;6.368;2023-02-28T12:10:20;101177.19;;;6.65;41.62
15678;BME280;7939;50.814;6.368;2023-02-28T12:12:55;101171.06;;;6.83;42.13
15678;BME280;7939;50.814;6.368;2023-02-28T12:15:41;101167.91;;;6.88;40.99
15678;BME280;7939;50.814;6.368;2023-02-28T12:18:22;101163.16;;;6.97;42.46
15678;BME280;7939;50.814;6.368;2023-02-28T12:20:54;101167.22;;;6.92;41.22
15678;BME280;7939;50.814;6.368;2023-02-28T12:23:43;101169.53;;;6.86;40.35
15678;BME280;7939;50.814;6.368;2023-02-28T12:26:19;101164.78;;;6.95;39.51
15678;BME280;7939;50.814;6.368;2023-02-28T12:28:52;101161.28;;;6.92;39.57
15678;BME280;7939;50.814;6.368;2023-02-28T12:31:21;101169.91;;;6.97;40.54
15678;BME280;7939;50.814;6.368;2023-02-28T12:33:51;101170.41;;;6.87;38.60
15678;BME280;7939;50.814;6.368;2023-02-28T12:36:20;101165.88;;;7.02;40.78
15678;BME280;7939;50.814;6.368;2023-02-28T12:38:53;101154.59;;;6.95;38.81
15678;BME280;7939;50.814;6.368;2023-02-28T12:41:26;101149.06;;;7.06;41.62
15678;BME280;7939;50.814;6.368;2023-02-28T12:43:58;101145.53;;;7.02;39.91
15678;BME280;7939;50.814;6.368;2023-02-28T12:46:32;101151.44;;;7.01;40.06
15678;BME280;7939;50.814;6.368;2023-02-28T12:49:04;101150.13;;;6.88;40.35
15678;BME280;7939;50.814;6.368;2023-02-28T12:51:32;101142.03;;;6.98;40.02
15678;BME280;7939;50.814;6.368;2023-02-28T12:54:07;101140.22;;;6.96;39.02
15678;BME280;7939;50.814;6.368;2023-02-28T12:56:44;101137.41;;;6.88;40.61
15678;BME280;7939;50.814;6.368;2023-02-28T12:59:18;101132.97;;;6.83;39.56
15678;BME280;7939;50.814;6.368;2023-02-28T13:02:00;101126.78;;;6.98;40.83
15678;BME280;7939;50.814;6.368;2023-02-28T13:07:46;101122.66;;;7.02;40.28
15678;BME280;7939;50.814;6.368;2023-02-28T13:10:16;101120.06;;;7.00;40.31
15678;BME280;7939;50.814;6.368;2023-02-28T13:12:49;101116.53;;;6.97;39.75
15678;BME280;7939;50.814;6.368;2023-02-28T13:15:18;101120.03;;;6.76;38.71
15678;BME280;7939;50.814;6.368;2023-02-28T13:17:50;101117.25;;;6.93;39.99
15678;BME280;7939;50.814;6.368;2023-02-28T13:20:19;101109.94;;;6.78;39.91
15678;BME280;7939;50.814;6.368;2023-02-28T13:22:49;101109.19;;;6.81;39.45
15678;BME280;7939;50.814;6.368;2023-02-28T13:32:08;101107.28;;;6.75;40.20
15678;BME280;7939;50.814;6.368;2023-02-28T13:34:31;101104.94;;;6.80;39.69
15678;BME280;7939;50.814;6.368;2023-02-28T13:40:27;101112.47;;;6.78;40.00
15678;BME280;7939;50.814;6.368;2023-02-28T13:42:54;101101.16;;;6.70;39.41